Terminal Aerodrome Forecast
Issued by NWS Central Illinois

Home | Current Version | Previous Version | Text Only | Print | Product List | Glossary On
Versions: 1 2 3 4 5 6 7 8 9 10 11 12 13 14 15 16 17 18 19
510
FTUS43 KILX 122014 AAA
TAFSPI
TAF AMD
KSPI 122014Z 1220/1318 31016G26KT P6SM SCT020 BKN030
      TEMPO 1222/1224 SCT030
     FM130000 32013G18KT P6SM SCT035
     FM130600 33009KT P6SM SCT250
     FM131100 33006KT P6SM SCT250=

USA.gov is the U.S. government's official web portal to all federal, state and local government web resources and services.